createdAt,value
2018-05-14T00:02:21.969Z,6.33
2018-05-14T00:04:49.436Z,6.40
2018-05-14T00:07:16.900Z,6.73
2018-05-14T00:09:44.341Z,6.53
2018-05-14T00:12:11.803Z,6.53
2018-05-14T00:14:39.236Z,6.80
2018-05-14T00:17:07.441Z,6.10
2018-05-14T00:19:34.904Z,6.40
2018-05-14T00:22:02.374Z,6.37
2018-05-14T00:24:29.815Z,6.43
2018-05-14T00:26:57.267Z,6.93
2018-05-14T00:29:24.712Z,6.13
2018-05-14T00:31:52.245Z,6.97
2018-05-14T00:34:20.464Z,6.97
2018-05-14T00:36:47.917Z,6.43
2018-05-14T00:39:15.349Z,6.73
2018-05-14T00:41:42.805Z,7.03
2018-05-14T00:44:10.242Z,7.00
2018-05-14T00:46:37.684Z,6.80
2018-05-14T00:49:05.123Z,6.90
2018-05-14T00:51:33.345Z,7.23
2018-05-14T00:54:00.788Z,7.93
2018-05-14T00:56:28.248Z,6.73
2018-05-14T00:58:55.689Z,8.00
2018-05-14T01:01:23.132Z,8.07
2018-05-14T01:03:50.593Z,8.07
2018-05-14T01:06:18.060Z,7.87
2018-05-14T01:08:45.496Z,7.97
2018-05-14T01:11:12.957Z,7.33
2018-05-14T01:13:40.407Z,8.07
2018-05-14T01:16:07.837Z,7.90
2018-05-14T01:18:35.300Z,7.50
2018-05-14T01:21:02.754Z,8.17
2018-05-14T01:23:30.208Z,9.03
2018-05-14T01:25:58.452Z,7.87
2018-05-14T01:28:26.688Z,7.90
2018-05-14T01:30:54.145Z,8.20
2018-05-14T01:33:22.357Z,8.23
2018-05-14T01:35:50.556Z,8.07
2018-05-14T01:38:18.022Z,9.00
2018-05-14T01:40:45.452Z,7.77
2018-05-14T01:43:12.917Z,8.67
2018-05-14T01:45:40.469Z,7.73
2018-05-14T01:48:08.690Z,8.83
2018-05-14T01:50:36.114Z,8.57
2018-05-14T01:53:03.580Z,9.03
2018-05-14T01:55:31.074Z,8.67
2018-05-14T01:57:59.226Z,9.43
2018-05-14T02:00:26.683Z,9.20
2018-05-14T02:02:54.122Z,8.47
2018-05-14T02:05:21.683Z,8.77
2018-05-14T02:07:49.115Z,8.17
2018-05-14T02:10:17.391Z,8.33
2018-05-14T02:12:45.613Z,8.63
2018-05-14T02:15:13.070Z,8.30
2018-05-14T02:17:40.502Z,9.30
2018-05-14T02:20:07.929Z,9.10
2018-05-14T02:22:36.188Z,9.47
2018-05-14T02:25:03.649Z,8.57
2018-05-14T02:27:31.156Z,9.43
2018-05-14T02:29:58.625Z,9.20
2018-05-14T02:32:26.097Z,9.27
2018-05-14T02:34:53.574Z,9.33
2018-05-14T02:37:21.056Z,8.43
2018-05-14T02:39:49.282Z,9.17
2018-05-14T02:42:16.740Z,9.00
2018-05-14T02:44:44.221Z,9.30
2018-05-14T02:47:11.709Z,9.63
2018-05-14T02:49:39.188Z,9.30
2018-05-14T02:52:06.649Z,9.00
2018-05-14T02:54:34.249Z,9.83
2018-05-14T02:57:01.707Z,9.37
2018-05-14T02:59:29.177Z,9.63
2018-05-14T03:01:57.435Z,9.90
2018-05-14T03:04:24.929Z,10.43
2018-05-14T03:06:52.412Z,9.73
2018-05-14T03:09:19.867Z,10.20
2018-05-14T03:11:47.340Z,9.63
2018-05-14T03:14:14.788Z,9.37
2018-05-14T03:16:42.277Z,9.70
2018-05-14T03:19:09.733Z,10.07
2018-05-14T03:21:37.212Z,10.13
2018-05-14T03:24:05.432Z,9.57
2018-05-14T03:26:32.924Z,9.57
2018-05-14T03:29:00.425Z,9.60
2018-05-14T03:31:27.910Z,9.90
2018-05-14T03:33:55.364Z,9.63
2018-05-14T03:36:22.828Z,9.73
2018-05-14T03:38:50.317Z,10.23
2018-05-14T03:41:17.793Z,9.37
2018-05-14T03:43:45.308Z,9.27
2018-05-14T03:46:12.784Z,10.13
2018-05-14T03:48:40.245Z,9.73
2018-05-14T03:51:07.753Z,9.53
2018-05-14T03:53:35.208Z,9.80
2018-05-14T03:56:02.677Z,9.53
2018-05-14T03:58:41.832Z,9.60
2018-05-14T04:01:14.737Z,10.23
2018-05-14T04:03:54.029Z,9.83
2018-05-14T04:06:33.491Z,9.73
2018-05-14T04:09:00.988Z,8.77
2018-05-14T04:11:30.880Z,10.00
2018-05-14T04:13:58.336Z,10.27
2018-05-14T04:16:25.863Z,10.60
2018-05-14T04:18:54.041Z,9.53
2018-05-14T04:21:21.528Z,10.87
2018-05-14T04:23:48.984Z,10.10
2018-05-14T04:26:16.469Z,9.17
2018-05-14T04:28:44.717Z,9.97
2018-05-14T04:31:12.200Z,10.53
2018-05-14T04:33:40.432Z,10.47
2018-05-14T04:36:07.913Z,9.40
2018-05-14T04:38:35.388Z,9.80
2018-05-14T04:41:03.644Z,10.40
2018-05-14T04:43:31.114Z,10.30
2018-05-14T04:45:59.391Z,9.97
2018-05-14T04:48:27.617Z,9.63
2018-05-14T04:50:55.113Z,10.17
2018-05-14T04:53:23.332Z,10.07
2018-05-14T04:55:50.788Z,9.53
2018-05-14T04:58:18.261Z,9.63
2018-05-14T05:00:45.724Z,10.33
2018-05-14T05:03:13.212Z,9.97
2018-05-14T05:05:40.672Z,9.50
2018-05-14T05:08:08.159Z,10.00
2018-05-14T05:10:35.635Z,9.37
2018-05-14T05:13:03.097Z,8.90
2018-05-14T05:15:30.604Z,9.70
2018-05-14T05:17:58.858Z,9.20
2018-05-14T05:20:26.296Z,8.47
2018-05-14T05:22:53.995Z,9.23
2018-05-14T05:25:21.392Z,9.63
2018-05-14T05:27:48.876Z,9.40
2018-05-14T05:30:16.356Z,10.03
2018-05-14T05:32:43.808Z,8.97
2018-05-14T05:35:11.290Z,9.30
2018-05-14T05:37:39.626Z,9.17
2018-05-14T05:40:07.021Z,9.00
2018-05-14T05:42:35.262Z,9.03
2018-05-14T05:45:02.783Z,8.23
2018-05-14T05:47:30.238Z,8.73
2018-05-14T05:49:57.717Z,8.90
2018-05-14T05:52:25.233Z,8.87
2018-05-14T05:54:52.668Z,8.83
2018-05-14T05:57:20.127Z,8.37
2018-05-14T05:59:47.600Z,8.33
2018-05-14T06:02:15.860Z,8.83
2018-05-14T06:04:43.337Z,8.17
2018-05-14T06:07:11.560Z,8.03
2018-05-14T06:09:39.044Z,8.07
2018-05-14T06:12:06.518Z,7.87
2018-05-14T06:14:34.114Z,8.27
2018-05-14T06:17:01.651Z,7.73
2018-05-14T06:19:29.100Z,7.60
2018-05-14T06:21:57.340Z,8.80
2018-05-14T06:24:24.807Z,7.70
2018-05-14T06:26:52.324Z,8.00
2018-05-14T06:29:19.787Z,8.07
2018-05-14T06:31:47.268Z,8.37
2018-05-14T06:34:14.768Z,8.00
2018-05-14T06:36:43.004Z,7.70
2018-05-14T06:39:10.596Z,7.97
2018-05-14T06:41:38.840Z,8.60
2018-05-14T06:44:06.328Z,7.47
2018-05-14T06:46:33.796Z,7.67
2018-05-14T06:49:02.041Z,6.80
2018-05-14T06:51:29.509Z,6.97
2018-05-14T06:53:56.968Z,7.40
2018-05-14T06:56:24.480Z,7.43
2018-05-14T06:58:51.944Z,7.37
2018-05-14T07:01:19.408Z,7.60
2018-05-14T07:03:46.889Z,6.83
2018-05-14T07:06:14.361Z,6.97
2018-05-14T07:08:41.836Z,7.13
2018-05-14T07:11:10.061Z,6.67
2018-05-14T07:13:37.535Z,7.10
2018-05-14T07:16:04.996Z,7.00
2018-05-14T07:18:32.507Z,7.10
2018-05-14T07:20:59.997Z,6.80
2018-05-14T07:23:27.444Z,6.77
2018-05-14T07:25:54.929Z,6.73
2018-05-14T07:28:22.412Z,6.50
2018-05-14T07:30:50.652Z,6.50
2018-05-14T07:33:18.114Z,6.80
2018-05-14T07:35:45.605Z,6.77
2018-05-14T07:38:13.836Z,6.70
2018-05-14T07:40:41.318Z,6.77
2018-05-14T07:43:09.616Z,6.60
2018-05-14T07:45:37.867Z,6.60
2018-05-14T07:48:05.348Z,7.03
2018-05-14T07:50:33.568Z,6.80
2018-05-14T07:53:01.149Z,6.63
2018-05-14T07:55:28.614Z,6.53
2018-05-14T07:57:56.077Z,6.80
2018-05-14T08:00:23.657Z,6.33
2018-05-14T08:02:51.013Z,6.80
2018-05-14T08:05:18.497Z,6.63
2018-05-14T08:07:46.024Z,6.20
2018-05-14T08:10:13.489Z,6.17
2018-05-14T08:12:41.745Z,7.03
2018-05-14T08:15:09.221Z,5.80
2018-05-14T08:20:10.513Z,6.23
2018-05-14T08:22:37.997Z,6.53
2018-05-14T08:25:05.488Z,5.97
2018-05-14T08:27:33.716Z,5.43
2018-05-14T08:30:01.173Z,5.57
2018-05-14T08:32:28.645Z,6.03
2018-05-14T08:34:56.102Z,5.87
2018-05-14T08:37:23.584Z,5.27
2018-05-14T08:39:51.028Z,5.50
2018-05-14T08:42:18.531Z,5.57
2018-05-14T08:44:45.976Z,5.67
2018-05-14T08:47:13.466Z,5.83
2018-05-14T08:49:40.921Z,5.83
2018-05-14T08:52:08.400Z,5.13
2018-05-14T08:54:35.956Z,4.80
2018-05-14T08:57:03.372Z,5.60
2018-05-14T08:59:30.845Z,4.90
2018-05-14T09:01:58.284Z,4.97
2018-05-14T09:04:25.767Z,5.32
2018-05-14T09:06:53.223Z,5.65
2018-05-14T09:09:20.705Z,5.32
2018-05-14T09:11:48.164Z,5.20
2018-05-14T09:14:15.648Z,4.40
2018-05-14T09:16:43.105Z,5.43
2018-05-14T09:19:10.572Z,4.62
2018-05-14T09:21:38.074Z,4.65
2018-05-14T09:24:05.538Z,4.45
2018-05-14T09:26:33.024Z,4.65
2018-05-14T09:29:00.480Z,4.28
2018-05-14T09:31:27.968Z,5.07
2018-05-14T09:33:56.188Z,4.60
2018-05-14T09:36:23.673Z,5.25
2018-05-14T09:38:51.128Z,5.40
2018-05-14T09:41:18.613Z,4.87
2018-05-14T09:43:46.069Z,4.68
2018-05-14T09:46:14.340Z,4.28
2018-05-14T09:48:42.568Z,4.65
2018-05-14T09:51:10.019Z,4.10
2018-05-14T09:53:37.501Z,3.95
2018-05-14T09:56:05.717Z,4.28
2018-05-14T09:58:33.213Z,4.03
2018-05-14T10:01:00.668Z,3.78
2018-05-14T10:03:28.531Z,4.22
2018-05-14T10:05:55.965Z,4.12
2018-05-14T10:08:23.445Z,3.87
2018-05-14T10:10:50.928Z,4.10
2018-05-14T10:13:18.407Z,4.28
2018-05-14T10:15:45.876Z,3.97
2018-05-14T10:18:13.348Z,3.85
2018-05-14T10:20:40.836Z,4.05
2018-05-14T10:23:08.316Z,3.80
2018-05-14T10:25:35.783Z,4.70
2018-05-14T10:28:03.266Z,3.97
2018-05-14T10:30:30.721Z,4.22
2018-05-14T10:32:58.984Z,5.50
2018-05-14T10:35:26.469Z,4.50
2018-05-14T10:37:55.061Z,3.87
2018-05-14T10:40:22.594Z,4.47
2018-05-14T10:42:51.859Z,3.90
2018-05-14T10:45:19.352Z,3.90
2018-05-14T10:47:46.825Z,3.87
2018-05-14T10:50:15.065Z,3.95
2018-05-14T10:52:42.522Z,4.05
2018-05-14T10:55:10.000Z,4.32
2018-05-14T10:57:38.228Z,4.05
2018-05-14T11:00:05.742Z,4.53
2018-05-14T11:02:48.374Z,3.90
2018-05-14T11:05:15.869Z,3.92
2018-05-14T11:07:43.364Z,4.20
2018-05-14T11:10:12.151Z,4.45
2018-05-14T11:12:39.596Z,4.18
2018-05-14T11:15:07.861Z,4.43
2018-05-14T11:17:35.317Z,4.20
2018-05-14T11:20:14.575Z,4.43
2018-05-14T11:22:42.056Z,4.80
2018-05-14T11:25:09.545Z,4.75
2018-05-14T11:27:37.070Z,4.43
2018-05-14T11:30:04.667Z,4.55
2018-05-14T11:32:32.357Z,4.47
2018-05-14T11:34:59.879Z,4.03
2018-05-14T11:37:27.341Z,5.10
2018-05-14T11:39:55.007Z,4.90
2018-05-14T11:42:22.820Z,5.20
2018-05-14T11:44:50.432Z,4.90
2018-05-14T11:47:23.161Z,4.53
2018-05-14T11:49:50.836Z,5.22
2018-05-14T11:52:18.332Z,6.45
2018-05-14T11:54:45.794Z,5.05
2018-05-14T11:57:13.277Z,4.45
2018-05-14T11:59:40.728Z,5.00
2018-05-14T12:02:18.437Z,4.95
2018-05-14T12:04:45.965Z,4.50
2018-05-14T12:07:13.457Z,4.68
2018-05-14T12:09:40.900Z,4.20
2018-05-14T12:12:08.495Z,4.53
2018-05-14T12:14:35.848Z,4.43
2018-05-14T12:17:03.324Z,4.75
2018-05-14T12:19:31.554Z,4.80
2018-05-14T12:21:59.049Z,4.62
2018-05-14T12:24:26.502Z,5.32
2018-05-14T12:26:54.901Z,4.30
2018-05-14T12:29:22.382Z,5.10
2018-05-14T12:31:49.869Z,4.78
2018-05-14T12:34:17.325Z,5.12
2018-05-14T12:36:44.809Z,4.87
2018-05-14T12:39:12.305Z,4.62
2018-05-14T12:41:40.529Z,5.07
2018-05-14T12:44:08.013Z,5.32
2018-05-14T12:46:35.488Z,5.75
2018-05-14T12:49:02.964Z,5.00
2018-05-14T12:51:31.229Z,4.82
2018-05-14T12:53:58.765Z,5.28
2018-05-14T12:56:26.216Z,4.90
2018-05-14T12:58:53.720Z,5.80
2018-05-14T13:01:21.233Z,5.03
2018-05-14T13:03:48.713Z,5.40
2018-05-14T13:06:16.181Z,5.32
2018-05-14T13:08:43.661Z,4.78
2018-05-14T13:11:11.123Z,5.40
2018-05-14T13:13:39.370Z,5.20
2018-05-14T13:16:06.882Z,4.60
2018-05-14T13:18:34.350Z,5.12
2018-05-14T13:21:01.801Z,4.80
2018-05-14T13:23:29.278Z,4.68
2018-05-14T13:25:56.733Z,4.37
2018-05-14T13:28:24.232Z,4.87
2018-05-14T13:30:51.701Z,4.85
2018-05-14T13:33:19.176Z,4.97
2018-05-14T13:35:46.679Z,4.70
2018-05-14T13:38:14.153Z,4.62
2018-05-14T13:40:41.620Z,4.40
2018-05-14T13:43:09.137Z,5.05
2018-05-14T13:45:36.597Z,4.55
2018-05-14T13:48:04.061Z,4.78
2018-05-14T13:50:31.547Z,4.25
2018-05-14T13:52:59.049Z,4.35
2018-05-14T13:55:26.541Z,4.65
2018-05-14T13:57:54.016Z,4.45
2018-05-14T14:00:24.493Z,4.80
2018-05-14T14:02:51.945Z,4.90
2018-05-14T14:05:19.428Z,4.80
2018-05-14T14:07:46.939Z,5.10
2018-05-14T14:10:15.216Z,5.15
2018-05-14T14:12:43.464Z,4.95
2018-05-14T14:15:10.960Z,4.93
2018-05-14T14:17:39.217Z,5.05
2018-05-14T14:20:06.672Z,5.10
2018-05-14T14:22:34.155Z,4.75
2018-05-14T14:25:02.385Z,5.00
2018-05-14T14:27:29.868Z,4.90
2018-05-14T14:29:57.325Z,4.68
2018-05-14T14:32:24.816Z,5.00
2018-05-14T14:34:53.064Z,5.00
2018-05-14T14:37:20.541Z,4.90
2018-05-14T14:39:48.964Z,4.85
2018-05-14T14:42:16.442Z,5.35
2018-05-14T14:44:43.931Z,4.72
2018-05-14T14:47:11.398Z,5.10
2018-05-14T14:49:39.814Z,4.93
2018-05-14T14:52:07.292Z,4.28
2018-05-14T14:54:34.776Z,4.90
2018-05-14T14:57:02.240Z,5.00
2018-05-14T14:59:29.742Z,4.53
2018-05-14T15:01:57.192Z,4.60
2018-05-14T15:04:24.783Z,4.80
2018-05-14T15:06:52.170Z,5.15
2018-05-14T15:09:19.648Z,5.10
2018-05-14T15:11:47.111Z,5.47
2018-05-14T15:14:14.645Z,5.63
2018-05-14T15:16:42.145Z,5.40
2018-05-14T15:19:09.622Z,5.00
2018-05-14T15:21:37.851Z,5.57
2018-05-14T15:24:05.301Z,5.37
2018-05-14T15:26:32.816Z,5.60
2018-05-14T15:29:00.280Z,5.77
2018-05-14T15:31:27.734Z,5.07
2018-05-14T15:33:55.220Z,5.60
2018-05-14T15:36:22.676Z,4.80
2018-05-14T15:38:50.156Z,5.50
2018-05-14T15:41:17.679Z,5.37
2018-05-14T15:43:45.090Z,4.97
2018-05-14T15:46:12.549Z,5.17
2018-05-14T15:48:40.030Z,5.27
2018-05-14T15:51:07.493Z,4.87
2018-05-14T15:53:34.981Z,4.97
2018-05-14T15:56:02.441Z,4.70
2018-05-14T15:58:29.901Z,4.80
2018-05-14T16:00:58.145Z,4.73
2018-05-14T16:03:25.596Z,4.43
2018-05-14T16:05:53.073Z,4.53
2018-05-14T16:08:20.529Z,4.87
2018-05-14T16:10:48.013Z,4.97
2018-05-14T16:13:15.462Z,4.60
2018-05-14T16:15:42.917Z,4.93
2018-05-14T16:18:10.393Z,4.70
2018-05-14T16:20:37.878Z,4.47
2018-05-14T16:23:05.345Z,4.40
2018-05-14T16:25:33.584Z,4.67
2018-05-14T16:28:01.049Z,4.67
2018-05-14T16:30:28.528Z,4.50
2018-05-14T16:32:55.980Z,4.53
2018-05-14T16:35:23.441Z,4.93
2018-05-14T16:37:50.934Z,4.70
2018-05-14T16:40:18.409Z,4.70
2018-05-14T16:42:45.885Z,4.20
2018-05-14T16:45:13.353Z,4.70
2018-05-14T16:47:41.600Z,4.77
2018-05-14T16:50:09.085Z,4.53
2018-05-14T16:52:36.540Z,5.23
2018-05-14T16:55:04.021Z,4.37
2018-05-14T16:57:31.475Z,4.87
2018-05-14T16:59:58.933Z,4.70
2018-05-14T17:02:26.411Z,4.67
2018-05-14T17:04:53.917Z,5.10
2018-05-14T17:07:21.449Z,8.07
2018-05-14T17:09:49.693Z,5.57
2018-05-14T17:12:17.185Z,5.97
2018-05-14T17:14:44.684Z,5.77
2018-05-14T17:17:12.638Z,4.93
2018-05-14T17:19:40.109Z,5.50
2018-05-14T17:22:07.560Z,5.30
2018-05-14T17:24:35.045Z,5.53
2018-05-14T17:27:02.520Z,5.10
2018-05-14T17:29:29.980Z,5.70
2018-05-14T17:31:57.458Z,6.17
2018-05-14T17:34:25.697Z,5.53
2018-05-14T17:36:53.177Z,5.87
2018-05-14T17:39:20.633Z,5.23
2018-05-14T17:41:48.081Z,5.37
2018-05-14T17:44:15.565Z,4.93
2018-05-14T17:46:43.789Z,5.77
2018-05-14T17:49:11.277Z,5.33
2018-05-14T17:51:38.770Z,7.03
2018-05-14T17:54:06.998Z,5.53
2018-05-14T17:56:34.462Z,5.03
2018-05-14T17:59:01.942Z,5.87
2018-05-14T18:01:29.395Z,4.90
2018-05-14T18:03:56.873Z,4.90
2018-05-14T18:06:25.092Z,5.60
2018-05-14T18:08:52.577Z,6.57
2018-05-14T18:11:20.038Z,5.07
2018-05-14T18:13:47.509Z,5.70
2018-05-14T18:16:15.013Z,5.20
2018-05-14T18:18:42.473Z,5.33
2018-05-14T18:21:11.727Z,5.30
2018-05-14T18:23:44.852Z,5.43
2018-05-14T18:26:17.270Z,5.67
2018-05-14T18:28:48.735Z,5.17
2018-05-14T18:31:21.820Z,5.50
2018-05-14T18:33:49.988Z,5.77
2018-05-14T18:36:17.444Z,5.03
2018-05-14T18:38:44.919Z,6.43
2018-05-14T18:41:12.370Z,5.30
2018-05-14T18:43:39.853Z,5.40
2018-05-14T18:46:08.077Z,5.30
2018-05-14T18:48:35.548Z,4.97
2018-05-14T18:51:03.010Z,5.60
2018-05-14T18:53:30.481Z,5.20
2018-05-14T18:55:57.965Z,5.33
2018-05-14T18:58:25.433Z,5.60
2018-05-14T19:00:53.652Z,5.53
2018-05-14T19:03:21.137Z,5.20
2018-05-14T19:05:48.617Z,6.10
2018-05-14T19:08:16.084Z,5.60
2018-05-14T19:10:49.261Z,5.60
2018-05-14T19:13:16.705Z,5.53
2018-05-14T19:15:49.872Z,6.30
2018-05-14T19:18:17.361Z,5.87
2018-05-14T19:20:45.952Z,5.17
2018-05-14T19:23:19.017Z,8.50
2018-05-14T19:25:46.472Z,7.30
2018-05-14T19:28:19.568Z,6.03
2018-05-14T19:30:47.001Z,7.23
2018-05-14T19:33:20.845Z,5.50
2018-05-14T19:35:54.038Z,5.97
2018-05-14T19:38:21.531Z,5.63
2018-05-14T19:40:51.685Z,7.70
2018-05-14T19:43:19.149Z,9.23
2018-05-14T19:45:46.662Z,6.90
2018-05-14T19:48:14.115Z,6.27
2018-05-14T19:50:41.595Z,6.87
2018-05-14T19:53:09.095Z,5.73
2018-05-14T19:55:36.592Z,7.13
2018-05-14T19:58:04.010Z,6.90
2018-05-14T20:00:31.522Z,6.67
2018-05-14T20:02:59.744Z,5.90
2018-05-14T20:05:27.197Z,5.70
2018-05-14T20:07:54.677Z,5.80
2018-05-14T20:10:22.137Z,6.03
2018-05-14T20:12:49.616Z,6.30
2018-05-14T20:15:17.864Z,5.77
2018-05-14T20:17:45.329Z,6.03
2018-05-14T20:20:12.844Z,6.13
2018-05-14T20:22:40.270Z,6.47
2018-05-14T20:25:08.517Z,6.30
2018-05-14T20:27:35.977Z,6.57
2018-05-14T20:30:03.472Z,6.67
2018-05-14T20:32:33.229Z,6.33
2018-05-14T20:35:04.759Z,6.37
2018-05-14T20:37:32.276Z,5.90
2018-05-14T20:39:59.742Z,6.20
2018-05-14T20:42:27.224Z,6.30
2018-05-14T20:44:54.704Z,6.50
2018-05-14T20:47:22.164Z,6.27
2018-05-14T20:49:49.625Z,7.00
2018-05-14T20:52:17.183Z,7.40
2018-05-14T20:54:45.712Z,7.20
2018-05-14T20:57:13.175Z,7.23
2018-05-14T20:59:40.700Z,7.30
2018-05-14T21:02:08.115Z,7.90
2018-05-14T21:04:35.593Z,7.40
2018-05-14T21:07:03.058Z,7.43
2018-05-14T21:09:30.542Z,8.13
2018-05-14T21:11:59.225Z,7.67
2018-05-14T21:14:26.700Z,7.77
2018-05-14T21:16:54.161Z,7.80
2018-05-14T21:19:21.645Z,7.80
2018-05-14T21:21:49.898Z,8.03
2018-05-14T21:24:17.353Z,7.57
2018-05-14T21:26:44.814Z,8.27
2018-05-14T21:29:12.297Z,7.90
2018-05-14T21:31:40.677Z,8.40
2018-05-14T21:34:08.897Z,8.13
2018-05-14T21:36:36.373Z,8.07
2018-05-14T21:39:03.901Z,7.23
2018-05-14T21:41:31.381Z,8.10
2018-05-14T21:43:58.844Z,8.37
2018-05-14T21:46:26.352Z,8.60
2018-05-14T21:48:54.586Z,7.90
2018-05-14T21:51:22.067Z,7.87
2018-05-14T21:53:49.522Z,8.23
2018-05-14T21:56:16.997Z,8.80
2018-05-14T21:58:45.246Z,8.20
2018-05-14T22:01:12.697Z,8.97
2018-05-14T22:03:40.173Z,8.73
2018-05-14T22:06:07.627Z,9.67
2018-05-14T22:08:35.096Z,9.27
2018-05-14T22:11:02.558Z,8.83
2018-05-14T22:13:30.046Z,8.40
2018-05-14T22:15:57.497Z,9.03
2018-05-14T22:18:24.944Z,9.13
2018-05-14T22:20:53.188Z,9.37
2018-05-14T22:23:20.641Z,9.30
2018-05-14T22:25:48.117Z,10.43
2018-05-14T22:28:15.572Z,10.40
2018-05-14T22:30:43.049Z,9.40
2018-05-14T22:33:11.308Z,10.17
2018-05-14T22:35:38.791Z,9.77
2018-05-14T22:38:07.032Z,10.23
2018-05-14T22:40:34.493Z,10.37
2018-05-14T22:43:01.981Z,11.60
2018-05-14T22:45:30.253Z,10.80
2018-05-14T22:47:59.285Z,10.77
2018-05-14T22:50:26.760Z,11.67
2018-05-14T22:52:54.244Z,10.93
2018-05-14T22:55:21.701Z,11.80
2018-05-14T22:57:49.180Z,12.23
2018-05-14T23:00:31.017Z,11.83
2018-05-14T23:02:58.492Z,12.33
2018-05-14T23:05:25.960Z,12.33
2018-05-14T23:07:53.436Z,11.80
2018-05-14T23:10:20.892Z,11.67
2018-05-14T23:12:48.389Z,12.27
2018-05-14T23:15:15.847Z,12.30
2018-05-14T23:17:43.332Z,12.63
2018-05-14T23:20:10.805Z,12.00
2018-05-14T23:22:42.102Z,12.07
2018-05-14T23:25:09.562Z,12.63
2018-05-14T23:27:37.043Z,12.47
2018-05-14T23:30:04.549Z,12.17
2018-05-14T23:32:32.024Z,12.07
2018-05-14T23:35:00.252Z,12.67
2018-05-14T23:37:27.761Z,12.47
2018-05-14T23:39:55.993Z,12.43
2018-05-14T23:42:23.448Z,12.80
2018-05-14T23:44:50.958Z,12.70
2018-05-14T23:47:19.177Z,12.93
2018-05-14T23:49:46.637Z,12.67
2018-05-14T23:52:14.120Z,12.47
2018-05-14T23:54:42.341Z,13.13
2018-05-14T23:57:09.832Z,13.37
2018-05-14T23:59:37.285Z,13.37
